windsock image

Welcome to Bigfield Strip.

anemometer image
     

 Help for dials.  
 
Local Met:

Wind:   
10 Min average:  
222 ° / 14.9 kts (9.6)
229° / 13.6

Temperature:  
8.9°C C
Dew Point:  
7.4°C C
QNH:  
Trend:  
998.3 mb mb
-1.0mb/hr
BigField Strip. This image updates approximately every minute, it can have a two minute delay.  
 

Humidity:  
90 %
Sunrise:   06:52z
Sunset:   17:41z
Updated:  
  UTC
 
   More met info, trends, radar, history etc. available here   

LUTON Metar   EGGW 281850Z AUTO 20015KT 9999 -RA BKN015 09/06 Q0999 RERA REDZ
 
  TAF   2015/02/28 18:40 TAF AMD EGGW 281733Z 2818/0118 21015KT 9999 BKN016 BECMG 2818/2821 24019G30KT 8000 -RADZ BKN006 TEMPO 2818/2823 2000 RADZ BKN003 BECMG 2822/0101 9999 NSW SCT020 PROB30 TEMPO 0101/0115 8000 -SHRA BECMG 0113/0116 23013KT TEMPO 0116/0118 25016G26KT 6000 SHRA BKN011
 
BENSON Metar   EGUB 281850Z AUTO 18014KT 9999 // FEW017/// BKN050/// 09/06 Q1000
 
  TAF   2015/02/28 15:06 TAF TAF EGUB 281346Z 2815/2818 19012KT 9999 BKN020 TEMPO 2815/2818 19015G25KT FEW020 BKN040
 
Big Field view 1 icon   Big Field view 2 icon   Big Field view 3 icon   Chart AL3a in PDF icon   Chart AL3a in Word icon

WARNING:
This information is provided by the Airstrip unofficial weather station, DO NOT depend on the data provided here for any purpose.
This page is updated for latest Metars & TAF's every 5 minutes. Refresh the browser to check for the lastest.
Page designed for a minimum browser size of 1024x768.
© Copyright 2015 BigField Strip. This page auto generated 19:11 UTC - 28/02/2015   Contact Us
Valid HTML 4.01 Transitional     Windows uptime: 5 Days 16 Hours 39 Minutes 27 Seconds    WD started: 02:37 23/02/15    Free memory: 1475MB     Valid CSS!